createdAt,value
2022-11-12T00:01:37.391Z,20.08
2022-11-12T00:04:04.903Z,15.23
2022-11-12T00:06:32.314Z,18.55
2022-11-12T00:09:00.980Z,21.30
2022-11-12T00:11:28.291Z,20.30
2022-11-12T00:13:55.612Z,15.27
2022-11-12T00:16:22.960Z,16.55
2022-11-12T00:18:50.261Z,19.75
2022-11-12T00:21:17.550Z,16.63
2022-11-12T00:23:44.901Z,14.10
2022-11-12T00:26:13.560Z,17.70
2022-11-12T00:28:40.837Z,14.98
2022-11-12T00:31:09.077Z,13.63
2022-11-12T00:33:39.747Z,21.80
2022-11-12T00:36:07.210Z,15.43
2022-11-12T00:38:34.548Z,15.98
2022-11-12T00:41:01.922Z,15.80
2022-11-12T00:43:30.613Z,17.63
2022-11-12T00:45:57.982Z,17.92
2022-11-12T00:48:25.777Z,20.70
2022-11-12T00:50:59.631Z,16.20
2022-11-12T00:53:27.006Z,19.40
2022-11-12T00:55:54.327Z,20.13
2022-11-12T00:58:21.698Z,20.63
2022-11-12T01:00:50.376Z,22.13
2022-11-12T01:03:17.839Z,22.40
2022-11-12T01:05:45.143Z,20.70
2022-11-12T01:08:12.460Z,21.00
2022-11-12T01:10:39.809Z,26.58
2022-11-12T01:13:07.152Z,22.70
2022-11-12T01:15:34.471Z,20.88
2022-11-12T01:18:03.175Z,22.95
2022-11-12T01:20:30.494Z,23.30
2022-11-12T01:22:57.800Z,27.40
2022-11-12T01:25:25.123Z,23.88
2022-11-12T01:27:53.381Z,24.83
2022-11-12T01:30:20.755Z,26.02
2022-11-12T01:32:48.318Z,25.50
2022-11-12T01:35:17.002Z,28.00
2022-11-12T01:37:44.307Z,28.25
2022-11-12T01:40:11.982Z,24.20
2022-11-12T01:42:39.433Z,25.15
2022-11-12T01:45:15.778Z,25.05
2022-11-12T01:47:43.308Z,28.42
2022-11-12T01:50:15.325Z,27.92
2022-11-12T01:52:45.943Z,24.40
2022-11-12T01:55:15.047Z,26.58
2022-11-12T01:57:43.256Z,26.75
2022-11-12T02:00:12.035Z,29.95
2022-11-12T02:02:40.092Z,29.35
2022-11-12T02:05:09.219Z,25.00
2022-11-12T02:07:37.792Z,31.65
2022-11-12T02:10:07.283Z,28.23
2022-11-12T02:12:52.604Z,28.15
2022-11-12T02:15:20.028Z,32.53
2022-11-12T02:17:47.317Z,29.50
2022-11-12T02:20:15.483Z,31.13
2022-11-12T02:22:44.216Z,32.70
2022-11-12T02:25:13.632Z,34.63
2022-11-12T02:27:41.074Z,29.02
2022-11-12T02:30:08.636Z,30.10
2022-11-12T02:32:35.964Z,32.75
2022-11-12T02:35:03.360Z,36.10
2022-11-12T02:37:30.666Z,30.27
2022-11-12T02:39:59.651Z,32.08
2022-11-12T02:42:26.969Z,32.05
2022-11-12T02:44:54.511Z,26.83
2022-11-12T02:47:21.831Z,31.38
2022-11-12T02:49:49.190Z,31.20
2022-11-12T02:52:16.492Z,31.55
2022-11-12T02:54:43.795Z,31.55
2022-11-12T02:57:12.422Z,32.22
2022-11-12T02:59:39.712Z,26.88
2022-11-12T03:02:07.020Z,32.00
2022-11-12T03:04:34.274Z,28.80
2022-11-12T03:07:01.671Z,30.45
2022-11-12T03:09:29.046Z,26.48
2022-11-12T03:11:56.350Z,29.77
2022-11-12T03:14:25.221Z,31.20
2022-11-12T03:16:52.557Z,27.92
2022-11-12T03:19:19.884Z,30.25
2022-11-12T03:21:47.293Z,28.05
2022-11-12T03:24:14.654Z,34.17
2022-11-12T03:26:41.993Z,28.27
2022-11-12T03:29:09.312Z,29.50
2022-11-12T03:31:38.045Z,29.67
2022-11-12T03:34:05.352Z,24.10
2022-11-12T03:36:32.652Z,31.20
2022-11-12T03:39:00.054Z,30.63
2022-11-12T03:41:27.375Z,29.70
2022-11-12T03:43:54.674Z,32.78
2022-11-12T03:46:21.963Z,35.03
2022-11-12T03:48:50.611Z,33.17
2022-11-12T03:51:18.939Z,34.50
2022-11-12T03:53:46.245Z,33.95
2022-11-12T03:56:13.587Z,30.50
2022-11-12T03:58:41.212Z,34.55
2022-11-12T04:01:08.531Z,37.30
2022-11-12T04:03:35.873Z,34.58
2022-11-12T04:06:22.060Z,35.00
2022-11-12T04:08:49.346Z,31.83
2022-11-12T04:11:17.203Z,32.33
2022-11-12T04:13:47.376Z,35.20
2022-11-12T04:16:33.115Z,34.40
2022-11-12T04:19:18.853Z,32.00
2022-11-12T04:21:51.662Z,33.10
2022-11-12T04:24:37.580Z,31.67
2022-11-12T04:27:05.376Z,38.75
2022-11-12T04:29:50.436Z,31.90
2022-11-12T04:32:17.744Z,32.42
2022-11-12T04:34:45.270Z,35.97
2022-11-12T04:37:14.053Z,38.22
2022-11-12T04:39:41.372Z,36.90
2022-11-12T04:42:27.075Z,35.15
2022-11-12T04:45:04.874Z,37.55
2022-11-12T04:47:33.789Z,36.10
2022-11-12T04:50:01.179Z,37.15
2022-11-12T04:52:30.281Z,39.35
2022-11-12T04:54:57.864Z,34.55
2022-11-12T04:57:25.225Z,32.95
2022-11-12T04:59:52.719Z,33.95
2022-11-12T05:02:20.029Z,35.50
2022-11-12T05:04:47.361Z,37.97
2022-11-12T05:07:15.043Z,37.67
2022-11-12T05:09:43.806Z,39.30
2022-11-12T05:12:11.482Z,35.35
2022-11-12T05:14:38.775Z,36.33
2022-11-12T05:17:06.512Z,38.20
2022-11-12T05:19:34.936Z,34.33
2022-11-12T05:22:17.475Z,41.05
2022-11-12T05:24:56.012Z,40.35
2022-11-12T05:27:23.276Z,35.78
2022-11-12T05:29:50.645Z,44.08
2022-11-12T05:32:18.585Z,40.20
2022-11-12T05:34:45.931Z,39.92
2022-11-12T05:37:14.076Z,41.13
2022-11-12T05:39:41.535Z,40.33
2022-11-12T05:42:14.283Z,37.10
2022-11-12T05:44:41.895Z,47.03
2022-11-12T05:47:09.216Z,41.08
2022-11-12T05:49:36.506Z,40.47
2022-11-12T05:52:03.815Z,41.78
2022-11-12T05:54:31.149Z,41.78
2022-11-12T05:56:58.439Z,42.40
2022-11-12T05:59:27.126Z,37.63
2022-11-12T06:01:54.822Z,48.72
2022-11-12T06:04:23.117Z,45.72
2022-11-12T06:06:50.507Z,40.65
2022-11-12T06:09:17.961Z,47.75
2022-11-12T06:11:45.350Z,43.60
2022-11-12T06:14:12.924Z,44.35
2022-11-12T06:16:41.617Z,47.25
2022-11-12T06:19:08.895Z,49.60
2022-11-12T06:21:36.181Z,46.10
2022-11-12T06:24:03.965Z,53.50
2022-11-12T06:26:31.246Z,43.28
2022-11-12T06:29:00.980Z,49.40
2022-11-12T06:31:28.288Z,51.88
2022-11-12T06:33:56.984Z,51.97
2022-11-12T06:36:24.453Z,53.08
2022-11-12T06:38:51.802Z,54.40
2022-11-12T06:41:19.134Z,47.47
2022-11-12T06:43:46.411Z,51.95
2022-11-12T06:46:15.019Z,49.20
2022-11-12T06:48:42.466Z,53.45
2022-11-12T06:51:12.599Z,55.35
2022-11-12T06:53:39.954Z,53.10
2022-11-12T06:56:07.822Z,53.88
2022-11-12T06:58:35.555Z,50.55
2022-11-12T07:01:11.213Z,49.90
2022-11-12T07:03:39.539Z,53.17
2022-11-12T07:06:07.944Z,52.90
2022-11-12T07:08:36.789Z,40.22
2022-11-12T07:11:04.156Z,43.08
2022-11-12T07:13:32.420Z,45.65
2022-11-12T07:16:00.013Z,43.05
2022-11-12T07:18:28.070Z,51.13
2022-11-12T07:20:58.447Z,55.83
2022-11-12T07:23:26.140Z,77.63
2022-11-12T07:25:59.032Z,49.15
2022-11-12T07:28:26.902Z,51.55
2022-11-12T07:30:58.384Z,50.28
2022-11-12T07:33:25.739Z,145.35
2022-11-12T07:35:59.844Z,75.13
2022-11-12T07:38:27.926Z,55.50
2022-11-12T07:41:01.156Z,53.20
2022-11-12T07:43:28.587Z,47.65
2022-11-12T07:45:58.683Z,48.90
2022-11-12T07:48:26.464Z,47.75
2022-11-12T07:50:54.001Z,46.60
2022-11-12T07:53:21.307Z,43.70
2022-11-12T07:55:54.043Z,42.05
2022-11-12T07:58:22.812Z,41.42
2022-11-12T08:00:50.440Z,39.28
2022-11-12T08:03:17.858Z,37.42
2022-11-12T08:05:45.355Z,32.40
2022-11-12T08:08:12.723Z,30.42
2022-11-12T08:10:40.275Z,31.70
2022-11-12T08:13:07.599Z,25.75
2022-11-12T08:15:36.306Z,25.17
2022-11-12T08:18:03.600Z,20.50
2022-11-12T08:20:30.923Z,18.52
2022-11-12T08:23:00.363Z,20.25
2022-11-12T08:25:27.726Z,22.10
2022-11-12T08:27:57.028Z,16.48
2022-11-12T08:30:24.368Z,14.68
2022-11-12T08:32:57.683Z,16.45
2022-11-12T08:35:25.509Z,13.65
2022-11-12T08:37:52.843Z,13.55
2022-11-12T08:40:20.153Z,15.25
2022-11-12T08:42:47.472Z,16.45
2022-11-12T08:45:14.897Z,11.13
2022-11-12T08:47:42.221Z,13.68
2022-11-12T08:50:11.134Z,11.95
2022-11-12T08:52:38.433Z,9.88
2022-11-12T08:55:06.367Z,13.00
2022-11-12T08:57:33.691Z,11.32
2022-11-12T09:00:01.022Z,10.98
2022-11-12T09:02:28.313Z,11.00
2022-11-12T09:04:55.593Z,9.90
2022-11-12T09:10:11.558Z,9.63
2022-11-12T09:12:38.891Z,9.43
2022-11-12T09:15:36.323Z,9.00
2022-11-12T09:17:56.115Z,8.02
2022-11-12T09:20:23.539Z,8.82
2022-11-12T09:22:52.226Z,9.23
2022-11-12T09:25:19.597Z,9.88
2022-11-12T09:27:48.645Z,9.63
2022-11-12T09:30:16.364Z,10.23
2022-11-12T09:32:43.747Z,12.75
2022-11-12T09:35:11.446Z,11.40
2022-11-12T09:37:39.255Z,9.75
2022-11-12T09:40:08.866Z,8.48
2022-11-12T09:42:37.334Z,9.73
2022-11-12T09:45:06.746Z,8.10
2022-11-12T09:47:36.878Z,8.95
2022-11-12T09:50:11.466Z,8.50
2022-11-12T09:52:41.370Z,10.02
2022-11-12T09:55:13.949Z,9.55
2022-11-12T09:57:41.272Z,10.88
2022-11-12T10:00:14.858Z,9.35
2022-11-12T10:02:43.945Z,10.52
2022-11-12T10:05:23.166Z,8.80
2022-11-12T10:07:56.470Z,7.35
2022-11-12T10:10:33.571Z,7.35
2022-11-12T10:13:10.074Z,10.13
2022-11-12T10:15:56.588Z,11.48
2022-11-12T10:18:29.877Z,10.13
2022-11-12T10:21:00.217Z,7.88
2022-11-12T10:23:29.056Z,7.72
2022-11-12T10:25:58.980Z,7.55
2022-11-12T10:28:30.118Z,8.38
2022-11-12T10:31:01.798Z,9.30
2022-11-12T10:33:32.765Z,7.45
2022-11-12T10:36:12.271Z,7.75
2022-11-12T10:38:39.852Z,6.80
2022-11-12T10:41:20.268Z,9.45
2022-11-12T10:43:54.009Z,7.53
2022-11-12T10:46:22.384Z,8.10
2022-11-12T10:48:54.854Z,8.10
2022-11-12T10:51:26.775Z,8.10
2022-11-12T10:53:54.091Z,9.60
2022-11-12T10:56:27.115Z,11.13
2022-11-12T10:59:09.602Z,9.93
2022-11-12T11:01:39.444Z,8.77
2022-11-12T11:04:17.170Z,9.23
2022-11-12T11:06:44.915Z,8.30
2022-11-12T11:09:16.808Z,7.13
2022-11-12T11:11:50.945Z,8.07
2022-11-12T11:14:25.331Z,8.02
2022-11-12T11:16:53.721Z,8.30
2022-11-12T11:19:21.513Z,8.10
2022-11-12T11:21:58.571Z,8.98
2022-11-12T11:24:38.087Z,8.20
2022-11-12T11:27:11.988Z,9.55
2022-11-12T11:29:45.266Z,10.27
2022-11-12T11:32:18.167Z,10.15
2022-11-12T11:34:51.680Z,7.70
2022-11-12T11:37:25.516Z,9.32
2022-11-12T11:40:00.010Z,8.30
2022-11-12T11:42:39.790Z,10.43
2022-11-12T11:45:13.512Z,7.85
2022-11-12T11:48:00.696Z,7.22
2022-11-12T11:50:29.259Z,10.60
2022-11-12T11:53:02.810Z,10.95
2022-11-12T11:55:35.485Z,7.90
2022-11-12T11:58:12.885Z,7.95
2022-11-12T12:00:46.427Z,8.65
2022-11-12T12:03:19.103Z,9.13
2022-11-12T12:05:51.377Z,7.60
2022-11-12T12:08:23.623Z,9.88
2022-11-12T12:11:12.011Z,6.80
2022-11-12T12:13:46.914Z,10.38
2022-11-12T12:18:46.859Z,7.28
2022-11-12T12:21:16.402Z,10.07
2022-11-12T12:23:47.453Z,7.03
2022-11-12T12:26:16.695Z,8.50
2022-11-12T12:28:47.991Z,7.53
2022-11-12T12:31:17.479Z,8.27
2022-11-12T12:33:48.037Z,7.63
2022-11-12T12:36:16.685Z,9.18
2022-11-12T12:38:45.544Z,8.55
2022-11-12T12:41:15.870Z,7.25
2022-11-12T12:43:46.372Z,9.00
2022-11-12T12:46:16.337Z,7.07
2022-11-12T12:48:44.736Z,10.90
2022-11-12T12:51:12.570Z,7.13
2022-11-12T12:53:40.536Z,7.88
2022-11-12T12:56:28.084Z,10.15
2022-11-12T12:58:56.211Z,7.25
2022-11-12T13:01:33.116Z,7.78
2022-11-12T13:04:02.176Z,7.97
2022-11-12T13:06:32.061Z,6.82
2022-11-12T13:09:04.016Z,9.55
2022-11-12T13:12:08.830Z,7.13
2022-11-12T13:14:47.275Z,9.05
2022-11-12T13:17:35.919Z,9.70
2022-11-12T13:20:33.681Z,11.20
2022-11-12T13:23:01.008Z,7.15
2022-11-12T13:25:29.750Z,10.30
2022-11-12T13:28:07.077Z,9.60
2022-11-12T13:30:52.840Z,7.63
2022-11-12T13:33:25.646Z,9.10
2022-11-12T13:35:52.974Z,7.97
2022-11-12T13:38:20.453Z,7.80
2022-11-12T13:40:51.138Z,10.90
2022-11-12T13:43:21.899Z,8.32
2022-11-12T13:45:50.738Z,9.68
2022-11-12T13:48:21.236Z,8.30
2022-11-12T13:50:52.927Z,8.80
2022-11-12T13:53:22.509Z,7.65
2022-11-12T13:55:50.582Z,9.55
2022-11-12T13:58:20.283Z,10.50
2022-11-12T14:00:52.269Z,10.63
2022-11-12T14:03:20.247Z,10.20
2022-11-12T14:05:48.502Z,7.18
2022-11-12T14:08:30.712Z,7.18
2022-11-12T14:11:05.316Z,10.20
2022-11-12T14:13:44.621Z,7.63
2022-11-12T14:16:19.050Z,7.47
2022-11-12T14:18:56.067Z,9.40
2022-11-12T14:21:23.420Z,9.23
2022-11-12T14:23:50.945Z,7.38
2022-11-12T14:26:33.173Z,7.72
2022-11-12T14:29:02.113Z,7.55
2022-11-12T14:31:29.435Z,6.07
2022-11-12T14:33:56.790Z,6.05
2022-11-12T14:36:24.519Z,7.75
2022-11-12T14:38:53.202Z,9.57
2022-11-12T14:41:22.229Z,7.88
2022-11-12T14:44:07.456Z,6.25
2022-11-12T14:46:40.248Z,11.43
2022-11-12T14:49:13.902Z,7.47
2022-11-12T14:51:43.309Z,6.80
2022-11-12T14:54:15.470Z,8.02
2022-11-12T14:56:43.838Z,8.90
2022-11-12T14:59:11.513Z,7.00
2022-11-12T15:04:36.026Z,6.20
2022-11-12T15:07:03.414Z,7.57
2022-11-12T15:09:35.021Z,8.85
2022-11-12T15:12:03.048Z,6.70
2022-11-12T15:14:30.427Z,6.85
2022-11-12T15:17:00.470Z,7.55
2022-11-12T15:19:28.254Z,5.38
2022-11-12T15:21:57.213Z,8.02
2022-11-12T15:24:29.920Z,7.57
2022-11-12T15:26:58.164Z,8.07
2022-11-12T15:29:26.853Z,10.45
2022-11-12T15:31:55.426Z,5.75
2022-11-12T15:34:28.394Z,7.70
2022-11-12T15:36:56.166Z,8.02
2022-11-12T15:39:24.524Z,7.65
2022-11-12T15:41:57.533Z,5.10
2022-11-12T15:44:25.196Z,5.63
2022-11-12T15:46:53.005Z,5.65
2022-11-12T15:49:20.409Z,6.25
2022-11-12T15:51:49.025Z,8.48
2022-11-12T15:54:16.330Z,7.00
2022-11-12T15:56:43.795Z,6.93
2022-11-12T15:59:13.126Z,6.28
2022-11-12T16:01:40.456Z,5.68
2022-11-12T16:04:07.738Z,6.75
2022-11-12T16:06:35.155Z,7.22
2022-11-12T16:09:03.916Z,5.57
2022-11-12T16:11:36.916Z,10.55
2022-11-12T16:14:05.480Z,9.90
2022-11-12T16:16:33.080Z,14.02
2022-11-12T16:19:00.406Z,6.30
2022-11-12T16:21:27.719Z,6.68
2022-11-12T16:23:55.071Z,7.80
2022-11-12T16:26:27.319Z,7.40
2022-11-12T16:28:54.657Z,6.65
2022-11-12T16:31:22.659Z,8.27
2022-11-12T16:33:50.027Z,6.50
2022-11-12T16:36:17.767Z,8.55
2022-11-12T16:38:45.938Z,7.07
2022-11-12T16:41:13.871Z,8.93
2022-11-12T16:43:42.832Z,7.63
2022-11-12T16:46:14.990Z,9.70
2022-11-12T16:48:42.303Z,6.97
2022-11-12T16:51:14.604Z,8.13
2022-11-12T16:53:42.043Z,8.68
2022-11-12T16:56:12.580Z,7.30
2022-11-12T16:58:41.130Z,8.85
2022-11-12T17:01:11.923Z,9.63
2022-11-12T17:03:39.311Z,6.95
2022-11-12T17:06:06.814Z,6.90
2022-11-12T17:08:34.315Z,9.02
2022-11-12T17:11:06.658Z,9.75
2022-11-12T17:13:34.011Z,7.93
2022-11-12T17:16:01.301Z,9.80
2022-11-12T17:18:29.920Z,6.68
2022-11-12T17:20:57.335Z,7.90
2022-11-12T17:23:24.991Z,8.85
2022-11-12T17:26:00.336Z,8.48
2022-11-12T17:28:28.693Z,11.23
2022-11-12T17:31:02.733Z,9.43
2022-11-12T17:33:31.436Z,7.57
2022-11-12T17:36:01.757Z,9.55
2022-11-12T17:38:29.794Z,8.60
2022-11-12T17:40:57.560Z,7.93
2022-11-12T17:43:25.765Z,7.80
2022-11-12T17:45:55.769Z,10.45
2022-11-12T17:48:24.511Z,8.32
2022-11-12T17:50:55.312Z,7.50
2022-11-12T17:53:23.442Z,9.32
2022-11-12T17:55:57.142Z,8.38
2022-11-12T17:58:24.559Z,8.13
2022-11-12T18:00:53.370Z,8.68
2022-11-12T18:03:22.046Z,7.78
2022-11-12T18:05:58.036Z,10.30
2022-11-12T18:08:25.547Z,6.80
2022-11-12T18:10:58.126Z,7.32
2022-11-12T18:13:27.903Z,7.82
2022-11-12T18:15:56.915Z,8.98
2022-11-12T18:18:24.566Z,9.65
2022-11-12T18:20:53.181Z,7.88
2022-11-12T18:23:21.924Z,6.35
2022-11-12T18:25:49.222Z,7.30
2022-11-12T18:28:16.599Z,6.30
2022-11-12T18:30:44.155Z,6.70
2022-11-12T18:33:11.488Z,6.03
2022-11-12T18:35:38.808Z,6.07
2022-11-12T18:38:06.217Z,6.85
2022-11-12T18:40:34.977Z,6.47
2022-11-12T18:43:02.285Z,6.45
2022-11-12T18:45:29.612Z,6.78
2022-11-12T18:47:57.024Z,7.47
2022-11-12T18:50:24.450Z,7.60
2022-11-12T18:52:51.753Z,7.70
2022-11-12T18:55:19.085Z,8.73
2022-11-12T18:57:47.756Z,7.95
2022-11-12T19:00:16.561Z,10.23
2022-11-12T19:02:44.068Z,9.45
2022-11-12T19:05:11.391Z,9.63
2022-11-12T19:07:38.757Z,11.98
2022-11-12T19:10:14.613Z,8.68
2022-11-12T19:12:42.688Z,10.18
2022-11-12T19:15:11.930Z,10.73
2022-11-12T19:17:39.292Z,10.27
2022-11-12T19:20:07.540Z,9.50
2022-11-12T19:22:34.867Z,8.23
2022-11-12T19:25:02.809Z,9.90
2022-11-12T19:27:30.119Z,9.05
2022-11-12T19:30:02.600Z,8.93
2022-11-12T19:32:32.213Z,9.32
2022-11-12T19:34:59.560Z,10.65
2022-11-12T19:37:33.359Z,10.38
2022-11-12T19:40:01.661Z,12.73
2022-11-12T19:42:29.022Z,8.38
2022-11-12T19:44:56.448Z,10.57
2022-11-12T19:47:23.818Z,9.65
2022-11-12T19:49:52.551Z,9.48
2022-11-12T19:52:19.925Z,9.20
2022-11-12T19:54:47.255Z,9.90
2022-11-12T19:57:14.556Z,10.93
2022-11-12T19:59:41.901Z,9.48
2022-11-12T20:02:11.817Z,10.73
2022-11-12T20:04:39.151Z,10.88
2022-11-12T20:07:08.152Z,11.40
2022-11-12T20:09:35.540Z,9.10
2022-11-12T20:12:02.903Z,10.15
2022-11-12T20:14:30.637Z,8.88
2022-11-12T20:16:57.966Z,9.73
2022-11-12T20:19:26.380Z,10.13
2022-11-12T20:21:53.721Z,10.48
2022-11-12T20:24:22.363Z,8.77
2022-11-12T20:26:49.763Z,9.18
2022-11-12T20:29:17.097Z,9.02
2022-11-12T20:31:44.428Z,9.43
2022-11-12T20:34:11.846Z,9.82
2022-11-12T20:36:39.192Z,10.07
2022-11-12T20:39:06.527Z,11.38
2022-11-12T20:41:35.213Z,9.30
2022-11-12T20:44:02.752Z,10.38
2022-11-12T20:46:30.136Z,9.00
2022-11-12T20:48:57.521Z,11.45
2022-11-12T20:51:25.904Z,11.30
2022-11-12T20:53:59.410Z,14.38
2022-11-12T20:56:28.027Z,10.43
2022-11-12T20:58:57.049Z,14.35
2022-11-12T21:01:25.171Z,12.05
2022-11-12T21:03:52.573Z,9.88
2022-11-12T21:06:23.045Z,10.70
2022-11-12T21:08:50.399Z,9.38
2022-11-12T21:11:18.540Z,10.50
2022-11-12T21:13:46.047Z,9.55
2022-11-12T21:16:14.844Z,10.57
2022-11-12T21:18:42.329Z,8.75
2022-11-12T21:21:10.786Z,8.93
2022-11-12T21:23:38.711Z,7.80
2022-11-12T21:26:07.344Z,10.82
2022-11-12T21:28:37.929Z,8.68
2022-11-12T21:31:06.095Z,13.77
2022-11-12T21:33:34.841Z,9.07
2022-11-12T21:36:02.241Z,12.18
2022-11-12T21:38:30.275Z,9.07
2022-11-12T21:41:04.962Z,8.90
2022-11-12T21:43:32.504Z,10.02
2022-11-12T21:46:00.529Z,9.75
2022-11-12T21:48:28.113Z,11.45
2022-11-12T21:50:57.072Z,10.13
2022-11-12T21:53:24.670Z,11.02
2022-11-12T21:55:51.996Z,8.98
2022-11-12T21:58:19.326Z,9.82
2022-11-12T22:00:46.735Z,10.35
2022-11-12T22:03:14.096Z,10.25
2022-11-12T22:05:41.505Z,10.30
2022-11-12T22:08:10.185Z,9.07
2022-11-12T22:10:37.516Z,10.65
2022-11-12T22:13:25.844Z,11.52
2022-11-12T22:15:52.645Z,9.95
2022-11-12T22:18:20.011Z,10.90
2022-11-12T22:20:56.031Z,11.85
2022-11-12T22:23:24.717Z,15.10
2022-11-12T22:25:52.228Z,12.00
2022-11-12T22:28:19.536Z,12.88
2022-11-12T22:30:46.864Z,13.52
2022-11-12T22:33:14.196Z,12.00
2022-11-12T22:35:41.493Z,12.57
2022-11-12T22:38:09.395Z,10.85
2022-11-12T22:40:38.133Z,10.80
2022-11-12T22:43:05.508Z,9.63
2022-11-12T22:45:32.840Z,10.25
2022-11-12T22:48:00.452Z,10.00
2022-11-12T22:50:27.847Z,9.73
2022-11-12T22:52:56.073Z,12.35
2022-11-12T22:55:23.411Z,10.45
2022-11-12T22:57:52.047Z,9.50
2022-11-12T23:00:19.869Z,13.15
2022-11-12T23:02:47.830Z,10.02
2022-11-12T23:05:15.415Z,9.18
2022-11-12T23:07:42.703Z,10.32
2022-11-12T23:10:10.456Z,15.00
2022-11-12T23:12:37.784Z,12.10
2022-11-12T23:15:07.519Z,10.05
2022-11-12T23:17:34.817Z,12.07
2022-11-12T23:20:02.134Z,11.95
2022-11-12T23:22:29.499Z,11.40
2022-11-12T23:24:56.809Z,11.90
2022-11-12T23:27:24.190Z,10.85
2022-11-12T23:29:51.490Z,11.32
2022-11-12T23:32:20.209Z,12.48
2022-11-12T23:34:47.488Z,11.43
2022-11-12T23:37:14.836Z,13.45
2022-11-12T23:39:42.158Z,11.48
2022-11-12T23:42:09.491Z,10.63
2022-11-12T23:44:36.807Z,10.93
2022-11-12T23:47:04.151Z,13.55
2022-11-12T23:49:32.829Z,10.85
2022-11-12T23:52:00.171Z,11.38
2022-11-12T23:54:27.509Z,10.85
2022-11-12T23:56:54.848Z,12.77
2022-11-12T23:59:22.203Z,12.38
